F/V War Raog III — FONQ — position and weather

sailwx.info

Track history (hours):
 
Tides and Currents Weather Stations Pressure Air Temp Water Temp Dewpoint Dewpoint Depression Visibility Wind Speed Wind Dir Waves Ship Positions

F/V War Raog III

Last reported at 2018-Jun-21 21:29 UTC. Time now 2018-Jun-24 15:05 UTC.
Position N 47°46' W 003°48'.

Length 16 m.

Type: Fishing. MMSI: 227144200.

Date/timePositionNaut miles runAvg speedWind from/ knotsBaromVisibWave heightAir tempDewpointWater temp
2018-Jun-21 21:29N 47°46' W 003°48'510.5
2018-Jun-21 20:59N 47°44' W 003°41'510.4
2018-Jun-21 20:30N 47°43' W 003°34'3 5.5
2018-Jun-21 20:00N 47°42' W 003°30'0 0.2
2018-Jun-21 19:30N 47°42' W 003°30'1 1.1
2018-Jun-21 19:00N 47°42' W 003°30'0 0.8
2018-Jun-21 18:30N 47°42' W 003°31'0 0.4
2018-Jun-21 18:00N 47°42' W 003°31'2 3.8
2018-Jun-21 17:30N 47°43' W 003°33'1 1.9
2018-Jun-21 17:00N 47°44' W 003°32'15 0.8
2018-Jun-20 21:03N 47°48' W 003°54'110.4
2018-Jun-20 20:59N 47°47' W 003°53'510.1
2018-Jun-20 20:28N 47°46' W 003°46'510.5
2018-Jun-20 20:00N 47°45' W 003°39'5 9.8
2018-Jun-20 19:30N 47°44' W 003°32'0 0.3
2018-Jun-20 19:00N 47°43' W 003°32'1 2.9
2018-Jun-20 18:30N 47°44' W 003°34'4 8.0
2018-Jun-20 18:00N 47°46' W 003°39'0 0.2
2018-Jun-20 17:30N 47°46' W 003°39'0 0.7
2018-Jun-20 17:00N 47°45' W 003°39'10 9.0
2018-Jun-20 15:51N 47°47' W 003°54'1 2.5
2018-Jun-20 15:30N 47°48' W 003°55'8 0.4
2018-Jun-19 19:39N 47°46' W 003°44'0 0.8
2018-Jun-19 19:09N 47°46' W 003°43'0 2.2
2018-Jun-19 18:59N 47°46' W 003°43'2 5.2
2018-Jun-19 18:30N 47°45' W 003°39'0 0.1
2018-Jun-19 18:00N 47°45' W 003°39'1 1.0
2018-Jun-19 17:30N 47°45' W 003°39'1 1.4
2018-Jun-19 16:59N 47°45' W 003°39'2 2.9
2018-Jun-19 16:27N 47°45' W 003°42'5 8.7
2018-Jun-19 15:50N 47°46' W 003°50'3 8.9
2018-Jun-19 15:28N 47°47' W 003°54'6 0.3
2018-Jun-18 20:27N 47°46' W 003°45'410.0
2018-Jun-18 20:00N 47°45' W 003°38'2 4.2
2018-Jun-18 19:30N 47°45' W 003°35'0 0.5
2018-Jun-18 19:00N 47°45' W 003°36'0 0.6
2018-Jun-18 18:30N 47°45' W 003°36'3 6.6
2018-Jun-18 18:00N 47°45' W 003°41'0 0.7
2018-Jun-18 17:30N 47°46' W 003°41'1 2.0
2018-Jun-18 16:58N 47°46' W 003°43'0 0.5
2018-Jun-18 16:29N 47°46' W 003°42'4 6.9
2018-Jun-18 15:58N 47°46' W 003°48'2 0.1
2018-Jun-17 20:57N 47°46' W 003°45'1 2.3
2018-Jun-17 20:27N 47°46' W 003°47'1 1.6
2018-Jun-17 20:00N 47°46' W 003°48'1 2.1
2018-Jun-17 19:30N 47°46' W 003°46'0 0.5
2018-Jun-17 18:49N 47°46' W 003°47'1 4.0
2018-Jun-17 18:29N 47°46' W 003°45'1 1.2
2018-Jun-17 18:00N 47°46' W 003°44'8 7.0
2018-Jun-17 16:51N 47°49' W 003°55'  
2018-Jun-14 21:48N 47°47' W 003°52'3 4.8
2018-Jun-14 21:04N 47°46' W 003°46'1 3.3
2018-Jun-14 20:39N 47°46' W 003°44'1 3.9
2018-Jun-14 20:30N 47°46' W 003°44'1 1.5
2018-Jun-14 19:59N 47°45' W 003°44'1 1.2
2018-Jun-14 19:30N 47°45' W 003°43'1 1.0
2018-Jun-14 19:00N 47°45' W 003°43'4 8.5
2018-Jun-14 18:30N 47°45' W 003°37'610.2
2018-Jun-14 17:56N 47°47' W 003°45'1 1.2
2018-Jun-14 17:30N 47°47' W 003°46'9 0.5
2018-Jun-13 22:56N 47°51' W 003°57'1 1.2
2018-Jun-13 21:58N 47°50' W 003°56'9 6.6
2018-Jun-13 20:40N 47°46' W 003°45'2 9.8
2018-Jun-13 20:28N 47°46' W 003°42'4 8.7
2018-Jun-13 20:00N 47°45' W 003°37'2 4.6
2018-Jun-13 19:30N 47°45' W 003°40'3 5.6
2018-Jun-13 19:00N 47°45' W 003°36'0 0.6
2018-Jun-13 18:30N 47°45' W 003°36'0 0.8
2018-Jun-13 18:00N 47°45' W 003°37'11 0.5
2018-Jun-12 21:48N 47°47' W 003°53'  
Track history (hours):
 
Tides and Currents Weather Stations Pressure Air Temp Water Temp Dewpoint Dewpoint Depression Visibility Wind Speed Wind Dir Waves Ship Positions

F/V War Raog III

Last reported at 2018-Jun-21 21:29 UTC. Time now 2018-Jun-24 15:05 UTC.
Position N 47°46' W 003°48'.

Length 16 m.

Type: Fishing. MMSI: 227144200.

Date/timePositionNaut miles runAvg speedWind from/ knotsBaromVisibWave heightAir tempDewpointWater temp
2018-Jun-21 21:29N 47°46' W 003°48'510.5
2018-Jun-21 20:59N 47°44' W 003°41'510.4
2018-Jun-21 20:30N 47°43' W 003°34'3 5.5
2018-Jun-21 20:00N 47°42' W 003°30'0 0.2
2018-Jun-21 19:30N 47°42' W 003°30'1 1.1
2018-Jun-21 19:00N 47°42' W 003°30'0 0.8
2018-Jun-21 18:30N 47°42' W 003°31'0 0.4
2018-Jun-21 18:00N 47°42' W 003°31'2 3.8
2018-Jun-21 17:30N 47°43' W 003°33'1 1.9
2018-Jun-21 17:00N 47°44' W 003°32'15 0.8
2018-Jun-20 21:03N 47°48' W 003°54'110.4
2018-Jun-20 20:59N 47°47' W 003°53'510.1
2018-Jun-20 20:28N 47°46' W 003°46'510.5
2018-Jun-20 20:00N 47°45' W 003°39'5 9.8
2018-Jun-20 19:30N 47°44' W 003°32'0 0.3
2018-Jun-20 19:00N 47°43' W 003°32'1 2.9
2018-Jun-20 18:30N 47°44' W 003°34'4 8.0
2018-Jun-20 18:00N 47°46' W 003°39'0 0.2
2018-Jun-20 17:30N 47°46' W 003°39'0 0.7
2018-Jun-20 17:00N 47°45' W 003°39'10 9.0
2018-Jun-20 15:51N 47°47' W 003°54'1 2.5
2018-Jun-20 15:30N 47°48' W 003°55'8 0.4
2018-Jun-19 19:39N 47°46' W 003°44'0 0.8
2018-Jun-19 19:09N 47°46' W 003°43'0 2.2
2018-Jun-19 18:59N 47°46' W 003°43'2 5.2
2018-Jun-19 18:30N 47°45' W 003°39'0 0.1
2018-Jun-19 18:00N 47°45' W 003°39'1 1.0
2018-Jun-19 17:30N 47°45' W 003°39'1 1.4
2018-Jun-19 16:59N 47°45' W 003°39'2 2.9
2018-Jun-19 16:27N 47°45' W 003°42'5 8.7
2018-Jun-19 15:50N 47°46' W 003°50'3 8.9
2018-Jun-19 15:28N 47°47' W 003°54'6 0.3
2018-Jun-18 20:27N 47°46' W 003°45'410.0
2018-Jun-18 20:00N 47°45' W 003°38'2 4.2
2018-Jun-18 19:30N 47°45' W 003°35'0 0.5
2018-Jun-18 19:00N 47°45' W 003°36'0 0.6
2018-Jun-18 18:30N 47°45' W 003°36'3 6.6
2018-Jun-18 18:00N 47°45' W 003°41'0 0.7
2018-Jun-18 17:30N 47°46' W 003°41'1 2.0
2018-Jun-18 16:58N 47°46' W 003°43'0 0.5
2018-Jun-18 16:29N 47°46' W 003°42'4 6.9
2018-Jun-18 15:58N 47°46' W 003°48'2 0.1
2018-Jun-17 20:57N 47°46' W 003°45'1 2.3
2018-Jun-17 20:27N 47°46' W 003°47'1 1.6
2018-Jun-17 20:00N 47°46' W 003°48'1 2.1
2018-Jun-17 19:30N 47°46' W 003°46'0 0.5
2018-Jun-17 18:49N 47°46' W 003°47'1 4.0
2018-Jun-17 18:29N 47°46' W 003°45'1 1.2
2018-Jun-17 18:00N 47°46' W 003°44'8 7.0
2018-Jun-17 16:51N 47°49' W 003°55'  
2018-Jun-14 21:48N 47°47' W 003°52'3 4.8
2018-Jun-14 21:04N 47°46' W 003°46'1 3.3
2018-Jun-14 20:39N 47°46' W 003°44'1 3.9
2018-Jun-14 20:30N 47°46' W 003°44'1 1.5
2018-Jun-14 19:59N 47°45' W 003°44'1 1.2
2018-Jun-14 19:30N 47°45' W 003°43'1 1.0
2018-Jun-14 19:00N 47°45' W 003°43'4 8.5
2018-Jun-14 18:30N 47°45' W 003°37'610.2
2018-Jun-14 17:56N 47°47' W 003°45'1 1.2
2018-Jun-14 17:30N 47°47' W 003°46'9 0.5
2018-Jun-13 22:56N 47°51' W 003°57'1 1.2
2018-Jun-13 21:58N 47°50' W 003°56'9 6.6
2018-Jun-13 20:40N 47°46' W 003°45'2 9.8
2018-Jun-13 20:28N 47°46' W 003°42'4 8.7
2018-Jun-13 20:00N 47°45' W 003°37'2 4.6
2018-Jun-13 19:30N 47°45' W 003°40'3 5.6
2018-Jun-13 19:00N 47°45' W 003°36'0 0.6
2018-Jun-13 18:30N 47°45' W 003°36'0 0.8
2018-Jun-13 18:00N 47°45' W 003°37'11 0.5
2018-Jun-12 21:48N 47°47' W 003°53'  

Dump ship's entire track history